Time;durP1;ratioP1;P1;durP2;ratioP2;P2;SDS_P1;SDS_P2;PMS_P1;PMS_P2;Temp;Humidity;BMP_temperature;BMP_pressure;BME280_temperature;BME280_humidity;BME280_pressure;Samples;Min_cycle;Max_cycle;Signal;HPM_P1;HPM_P2
2021/05/26 00:01:27;;;;;;;3.50;1.10;;;9.50;99.90;;;7.95;83.72;101065.88;3491987;40;103132;-40
2021/05/26 00:03:55;;;;;;;3.45;1.30;;;9.50;99.90;;;7.94;83.81;101065.06;3491479;40;103169;-39
2021/05/26 00:06:23;;;;;;;2.55;1.15;;;9.50;99.90;;;7.91;83.41;101060.81;3483734;40;102305;-40
2021/05/26 00:08:50;;;;;;;2.88;1.40;;;9.50;99.90;;;7.85;83.76;101053.44;3483656;40;102266;-40
2021/05/26 00:11:19;;;;;;;3.60;1.17;;;9.40;99.90;;;7.81;84.42;101052.13;3491737;40;102461;-40
2021/05/26 00:13:48;;;;;;;2.53;1.20;;;9.40;99.90;;;7.85;84.35;101053.44;3491535;40;102218;-40
2021/05/26 00:16:17;;;;;;;3.40;1.20;;;9.40;99.90;;;7.78;84.71;101047.09;3492069;40;102140;-40
2021/05/26 00:18:46;;;;;;;3.03;1.20;;;9.30;99.90;;;7.74;84.65;101048.50;3507012;40;104340;-40
2021/05/26 00:21:14;;;;;;;3.63;1.20;;;9.30;99.90;;;7.73;84.94;101044.94;3491679;40;102692;-39
2021/05/26 00:23:41;;;;;;;3.53;1.50;;;9.30;99.90;;;7.73;83.86;101049.53;3499385;40;102344;-40
2021/05/26 00:26:09;;;;;;;;;;;9.30;99.90;;;7.75;83.54;101050.19;3492467;40;102229;-40
2021/05/26 00:28:39;;;;;;;5.53;1.50;;;9.30;99.90;;;7.69;84.15;101045.47;3515877;40;102443;-40
2021/05/26 00:31:09;;;;;;;3.55;1.25;;;9.30;99.90;;;7.69;84.13;101035.47;3499728;40;102484;-40
2021/05/26 00:33:37;;;;;;;2.15;1.23;;;9.20;99.90;;;7.66;84.71;101037.72;3508404;40;104149;-39
2021/05/26 00:36:06;;;;;;;2.70;1.30;;;9.20;99.90;;;7.63;84.84;101031.63;3491750;40;102085;-40
2021/05/26 00:38:34;;;;;;;2.83;1.40;;;9.20;99.90;;;7.62;84.75;101035.38;3483353;40;105285;-40
2021/05/26 00:41:01;;;;;;;3.35;1.30;;;9.20;99.90;;;7.66;84.31;101035.00;3491610;40;102569;-40
2021/05/26 00:43:29;;;;;;;;;;;9.20;99.90;;;7.63;84.88;101037.06;3493214;40;104296;-40
2021/05/26 00:45:57;;;;;;;3.30;1.50;;;9.20;99.90;;;7.63;84.87;101026.19;3493216;40;102449;-40
2021/05/26 00:48:25;;;;;;;;;;;9.20;99.90;;;7.63;85.26;101023.47;3485569;40;104220;-40
2021/05/26 00:50:53;;;;;;;5.13;1.60;;;9.20;99.90;;;7.64;85.57;101021.63;3500752;40;102199;-40
2021/05/26 00:53:24;;;;;;;3.78;1.65;;;9.20;99.90;;;7.63;85.26;101015.34;3492633;40;102308;-40
2021/05/26 00:55:52;;;;;;;3.33;1.63;;;9.20;99.90;;;7.66;84.94;101013.28;3508928;40;102270;-39
2021/05/26 00:58:21;;;;;;;5.38;1.65;;;9.20;99.90;;;7.66;85.44;101010.56;3508938;40;102235;-40
2021/05/26 01:00:52;;;;;;;4.65;1.80;;;9.20;99.90;;;7.70;85.32;101012.72;3501383;40;102399;-40
2021/05/26 01:03:23;;;;;;;5.53;2.13;;;9.20;99.90;;;7.73;84.91;101008.78;3516897;40;103092;-40
2021/05/26 01:05:52;;;;;;;3.33;1.80;;;9.30;99.90;;;7.74;84.66;101000.44;3509011;40;102557;-40
2021/05/26 01:08:21;;;;;;;4.53;1.70;;;9.30;99.90;;;7.69;84.87;101002.03;3500758;40;104150;-40
2021/05/26 01:10:51;;;;;;;5.45;1.95;;;9.30;99.90;;;7.73;84.56;101001.47;3492589;40;103370;-40
2021/05/26 01:13:26;;;;;;;4.80;2.00;;;9.30;99.90;;;7.77;84.34;101005.50;3493537;40;102665;-40
2021/05/26 01:15:54;;;;;;;4.50;2.00;;;9.30;99.90;;;7.74;84.39;101003.16;3500842;40;102408;-40
2021/05/26 01:18:31;;;;;;;5.05;2.10;;;9.30;99.90;;;7.74;83.89;100994.19;3508897;40;104225;-40
2021/05/26 01:21:09;;;;;;;5.95;1.92;;;9.30;99.90;;;7.71;84.18;100991.84;3500472;40;102363;-40
2021/05/26 01:23:41;;;;;;;5.65;1.80;;;9.30;99.90;;;7.68;84.25;100990.34;3508962;40;103134;-40
2021/05/26 01:26:11;;;;;;;6.05;2.20;;;9.20;99.90;;;7.65;84.73;100981.72;3492655;40;102529;-39
2021/05/26 01:28:40;;;;;;;6.20;2.03;;;9.20;99.90;;;7.60;85.02;100982.31;3500592;40;105511;-40
2021/05/26 01:31:11;;;;;;;7.07;2.50;;;9.20;99.90;;;7.58;84.75;100978.94;3508428;40;102444;-40
2021/05/26 01:33:41;;;;;;;6.97;2.58;;;9.10;99.90;;;7.61;84.51;100978.56;3500805;40;103095;-41
2021/05/26 01:36:15;;;;;;;4.40;2.08;;;9.20;99.90;;;7.62;84.57;100983.78;3501463;40;102231;-40
2021/05/26 01:38:43;;;;;;;4.05;2.00;;;9.20;99.90;;;7.58;84.98;100979.75;3500667;40;102428;-40
2021/05/26 01:41:13;;;;;;;4.32;1.73;;;9.10;99.90;;;7.57;84.84;100972.66;3501132;40;103750;-40
2021/05/26 01:43:44;;;;;;;6.32;2.00;;;9.10;99.90;;;7.56;84.90;100978.25;3492367;40;103134;-40
2021/05/26 01:46:12;;;;;;;6.95;2.15;;;9.10;99.90;;;7.56;84.65;100973.69;3501131;40;102359;-40
2021/05/26 01:48:44;;;;;;;6.18;2.08;;;9.10;99.90;;;7.60;85.29;100966.00;3492719;40;102169;-40
2021/05/26 01:51:12;;;;;;;7.40;2.15;;;9.10;99.90;;;7.62;85.04;100958.53;3509128;40;102748;-39
2021/05/26 01:53:44;;;;;;;6.25;2.00;;;9.10;99.90;;;7.70;84.95;100965.72;3500291;40;102236;-40
2021/05/26 01:56:26;;;;;;;5.00;2.20;;;9.20;99.90;;;7.71;84.53;100959.25;3500704;40;102645;-39
2021/05/26 01:59:04;;;;;;;6.15;2.05;;;9.20;99.90;;;7.70;84.80;100960.28;3501096;40;102329;-39
2021/05/26 02:01:34;;;;;;;7.13;2.17;;;9.20;99.90;;;7.75;84.72;100955.13;3509996;40;102124;-40
2021/05/26 02:04:08;;;;;;;5.40;2.38;;;9.30;99.90;;;7.79;85.15;100956.41;3492993;40;103331;-40
2021/05/26 02:06:46;;;;;;;5.10;2.35;;;9.30;99.90;;;7.77;84.77;100953.88;3501073;40;102155;-40
2021/05/26 02:09:15;;;;;;;5.38;1.80;;;9.30;99.90;;;7.66;84.88;100938.09;3642472;22;103948;-39
2021/05/26 02:14:22;;;;;;;8.57;2.42;;;9.30;99.90;;;7.81;83.73;100953.50;3529369;39;103167;-40
2021/05/26 02:16:57;;;;;;;7.18;2.25;;;9.30;99.90;;;7.86;83.76;100959.22;3521152;39;103339;-40
2021/05/26 02:19:27;;;;;;;5.93;2.17;;;9.40;99.90;;;7.88;84.04;100955.25;3512209;39;103266;-39
2021/05/26 02:21:55;;;;;;;6.07;2.20;;;9.40;99.90;;;7.87;83.94;100956.28;3520503;39;104235;-40
2021/05/26 02:24:23;;;;;;;5.90;2.33;;;9.40;99.90;;;7.86;84.23;100956.50;3520071;39;105877;-40
2021/05/26 02:26:52;;;;;;;7.38;2.60;;;9.40;99.90;;;7.88;84.22;100952.53;3520274;39;103541;-40
2021/05/26 02:29:20;;;;;;;7.07;2.13;;;9.40;99.90;;;7.90;83.94;100947.75;3512075;39;105090;-40
2021/05/26 02:31:48;;;;;;;;;;;9.40;99.90;;;7.88;83.94;100947.13;3529392;39;104472;-40
2021/05/26 02:34:18;;;;;;;7.10;2.27;;;9.40;99.90;;;7.92;84.04;100942.97;3504493;39;103458;-40
2021/05/26 02:36:47;;;;;;;6.75;2.05;;;9.40;99.90;;;7.93;83.97;100941.13;3529009;39;102815;-40
2021/05/26 02:39:19;;;;;;;6.55;2.10;;;9.40;99.90;;;7.99;84.37;100932.19;3520766;39;103108;-40
2021/05/26 02:41:46;;;;;;;7.30;2.38;;;9.50;99.90;;;7.96;84.02;100932.56;3528373;39;105202;-40
2021/05/26 02:44:18;;;;;;;5.93;2.20;;;9.50;99.90;;;8.05;83.39;100941.44;3512583;39;103324;-40
2021/05/26 02:46:46;;;;;;;7.35;2.20;;;9.50;99.90;;;8.01;83.56;100935.56;3528665;39;104722;-40
2021/05/26 02:49:16;;;;;;;8.32;2.25;;;9.50;99.90;;;8.03;83.36;100928.03;3520582;39;103146;-40
2021/05/26 02:51:46;;;;;;;7.03;1.83;;;9.50;99.90;;;8.01;84.12;100929.28;3528849;39;102468;-40
2021/05/26 02:54:15;;;;;;;6.65;2.08;;;9.50;99.90;;;8.02;83.83;100933.69;3520027;39;103242;-40
2021/05/26 02:56:44;;;;;;;8.63;2.60;;;9.50;99.90;;;8.01;83.89;100919.25;3528466;39;103566;-40
2021/05/26 02:59:21;;;;;;;4.80;2.17;;;9.50;99.90;;;8.01;84.08;100927.41;3513756;39;103115;-40
2021/05/26 03:01:59;;;;;;;6.90;2.07;;;9.50;99.90;;;8.04;83.56;100931.63;3528576;39;103985;-40
2021/05/26 03:04:36;;;;;;;5.03;1.92;;;9.50;99.90;;;8.01;84.20;100929.28;3520715;39;104563;-39
2021/05/26 03:07:04;;;;;;;;;;;9.50;99.90;;;8.03;83.76;100928.03;3520601;39;105918;-40
2021/05/26 03:09:32;;;;;;;5.97;1.90;;;9.50;99.90;;;8.04;83.87;100931.63;3520281;39;103149;-40
2021/05/26 03:12:03;;;;;;;5.38;1.88;;;9.50;99.90;;;7.92;83.83;100915.81;3536915;39;103722;-40
2021/05/26 03:14:38;;;;;;;4.70;1.95;;;9.50;99.90;;;8.02;83.67;100926.38;3535672;39;104820;-39
2021/05/26 03:17:10;;;;;;;9.90;2.25;;;9.50;99.90;;;8.06;84.02;100929.53;3528565;39;102334;-40
2021/05/26 03:19:40;;;;;;;7.85;1.88;;;9.50;99.90;;;7.99;84.19;100926.75;3535853;39;104138;-40
2021/05/26 03:22:17;;;;;;;9.30;2.70;;;9.50;99.90;;;8.03;84.31;100921.78;3535993;39;105595;-40
2021/05/26 03:24:55;;;;;;;3.50;2.17;;;9.50;99.90;;;8.00;84.13;100919.47;3535641;39;104138;-39
2021/05/26 03:27:27;;;;;;;5.80;1.90;;;9.50;99.90;;;7.95;84.28;100911.88;3512059;39;104386;-40
2021/05/26 03:29:55;;;;;;;5.22;2.00;;;9.50;99.90;;;7.92;84.66;100921.25;3528428;39;102959;-40
2021/05/26 03:32:23;;;;;;;4.80;1.80;;;9.40;99.90;;;7.94;85.03;100918.34;3503690;39;105471;-40
2021/05/26 03:34:51;;;;;;;5.28;2.33;;;9.50;99.90;;;7.89;84.55;100916.19;3519918;39;102981;-40
2021/05/26 03:37:21;;;;;;;5.53;1.80;;;9.40;99.90;;;7.88;84.04;100913.69;3528329;39;102381;-40
2021/05/26 03:39:49;;;;;;;5.25;1.90;;;9.40;99.90;;;7.90;83.99;100919.78;3536781;39;106326;-40
2021/05/26 03:42:18;;;;;;;4.20;1.90;;;9.40;99.90;;;7.91;84.08;100918.72;3528390;39;103349;-40
2021/05/26 03:44:46;;;;;;;8.45;2.25;;;9.40;99.90;;;7.94;84.19;100912.91;3519946;39;103140;-40
2021/05/26 03:47:14;;;;;;;5.18;1.67;;;9.40;99.90;;;7.95;84.04;100916.44;3519777;39;103474;-40
2021/05/26 03:49:44;;;;;;;4.78;1.85;;;9.40;99.90;;;7.92;84.24;100910.38;3528204;39;103773;-40
2021/05/26 03:52:12;;;;;;;4.38;1.73;;;9.40;99.90;;;7.90;84.38;100917.88;3536238;39;102449;-40
2021/05/26 03:54:44;;;;;;;5.32;1.88;;;9.40;99.90;;;7.92;84.23;100906.84;3527973;39;104167;-40
2021/05/26 03:57:13;;;;;;;5.05;1.52;;;9.40;99.90;;;7.91;84.42;100907.88;3528351;39;102492;-40
2021/05/26 03:59:46;;;;;;;3.92;1.65;;;9.40;99.90;;;7.93;83.67;100903.09;3536123;39;103444;-40
2021/05/26 04:02:14;;;;;;;4.65;1.50;;;9.40;99.90;;;7.97;83.79;100909.81;3536195;39;102331;-40
2021/05/26 04:04:42;;;;;;;4.25;1.40;;;9.40;99.90;;;8.03;83.97;100900.88;3527747;39;105270;-40
2021/05/26 04:07:12;;;;;;;4.38;1.48;;;9.50;99.90;;;7.97;83.44;100906.25;3527902;39;103404;-40
2021/05/26 04:09:40;;;;;;;4.63;1.52;;;9.50;99.90;;;8.03;83.75;100914.47;3511528;39;106388;-40
2021/05/26 04:12:10;;;;;;;4.72;1.50;;;9.50;99.90;;;8.01;84.05;100902.13;3519853;39;102742;-40
2021/05/26 04:14:48;;;;;;;4.63;1.70;;;9.50;99.90;;;8.00;83.77;100892.28;3520171;39;104635;-40
2021/05/26 04:17:25;;;;;;;5.20;1.60;;;9.50;99.90;;;8.05;83.94;100898.78;3521460;39;103841;-40
2021/05/26 04:22:37;;;;;;;4.07;1.73;;;9.50;99.90;;;8.09;83.61;100891.09;3521835;39;103297;-40
2021/05/26 04:25:09;;;;;;;2.45;1.35;;;9.60;99.90;;;8.08;83.71;100892.16;3520869;39;104700;-40
2021/05/26 04:27:38;;;;;;;2.80;1.33;;;9.50;99.90;;;8.07;83.58;100883.13;3530415;39;102434;-40
2021/05/26 04:30:08;;;;;;;2.45;1.10;;;9.60;99.90;;;8.09;83.70;100887.53;3537638;39;103111;-40
2021/05/26 04:32:41;;;;;;;3.05;1.10;;;9.60;99.90;;;8.12;82.99;100881.75;3530126;39;104007;-40
2021/05/26 04:35:10;;;;;;;5.50;1.60;;;9.60;99.90;;;8.13;82.37;100884.25;3537072;39;104334;-40
2021/05/26 04:37:38;;;;;;;3.33;1.67;;;9.60;99.90;;;8.16;83.92;100881.13;3529877;39;103225;-40
2021/05/26 04:40:08;;;;;;;4.57;1.30;;;9.60;99.90;;;8.10;83.26;100884.63;3530657;39;103438;-40
2021/05/26 04:42:35;;;;;;;2.22;1.50;;;9.60;99.90;;;8.10;83.24;100878.38;3521235;39;103349;-40
2021/05/26 04:45:07;;;;;;;3.20;1.35;;;9.60;99.90;;;8.10;83.61;100881.91;3528871;39;103178;-40
2021/05/26 04:47:35;;;;;;;3.53;1.50;;;9.60;99.90;;;8.01;83.56;100858.66;3529155;39;104111;-40
2021/05/26 04:50:03;;;;;;;3.75;1.30;;;9.60;99.90;;;8.15;83.42;100887.59;3529004;39;103159;-40
2021/05/26 04:52:31;;;;;;;5.45;1.48;;;9.60;99.90;;;8.16;83.32;100880.31;3521128;39;104175;-40
2021/05/26 04:54:59;;;;;;;1.85;1.15;;;9.60;99.90;;;8.18;83.33;100881.78;3528826;39;103336;-40
2021/05/26 04:57:26;;;;;;;2.95;1.10;;;9.60;99.90;;;8.24;83.61;100876.63;3521074;39;102871;-40
2021/05/26 04:59:54;;;;;;;2.83;1.40;;;9.70;99.90;;;8.23;83.38;100877.66;3537236;39;104998;-40
2021/05/26 05:02:21;;;;;;;5.20;1.40;;;9.70;99.90;;;8.29;83.38;100876.88;3528915;39;103391;-40
2021/05/26 05:04:49;;;;;;;3.92;1.33;;;9.70;99.90;;;8.34;83.14;100875.22;3536678;39;103311;-40
2021/05/26 05:07:16;;;;;;;4.15;1.23;;;9.80;99.90;;;8.40;82.95;100873.59;3512802;39;105186;-41
2021/05/26 05:09:44;;;;;;;2.72;1.20;;;9.80;99.90;;;8.48;81.89;100876.16;3529215;39;103208;-40
2021/05/26 05:12:12;;;;;;;2.88;1.35;;;9.90;99.90;;;8.55;81.92;100870.00;3529032;39;103364;-40
2021/05/26 05:14:39;;;;;;;3.88;1.33;;;9.90;99.90;;;8.61;81.79;100874.63;3537232;39;103324;-40
2021/05/26 05:17:07;;;;;;;3.38;1.40;;;10.00;99.90;;;8.61;81.07;100869.19;3528780;39;104308;-40
2021/05/26 05:19:34;;;;;;;3.72;1.30;;;10.00;99.90;;;8.72;81.70;100871.34;3528342;39;105953;-40
2021/05/26 05:22:02;;;;;;;1.92;1.27;;;10.10;99.90;;;8.72;80.58;100865.09;3537598;39;102411;-40
2021/05/26 05:24:29;;;;;;;2.97;0.93;;;10.10;99.90;;;8.75;80.74;100861.97;3520409;39;104460;-39
2021/05/26 05:26:57;;;;;;;3.45;1.30;;;10.10;99.90;;;8.83;80.84;100871.84;3528831;39;102757;-40
2021/05/26 05:29:25;;;;;;;4.97;1.38;;;10.20;99.90;;;8.82;80.29;100862.84;3537116;39;104704;-40
2021/05/26 05:31:52;;;;;;;3.25;1.13;;;10.20;99.90;;;8.83;80.94;100866.41;3520756;39;103523;-40
2021/05/26 05:34:19;;;;;;;3.22;1.02;;;10.20;99.90;;;8.88;79.86;100869.38;3528593;39;106261;-40
2021/05/26 05:36:47;;;;;;;2.35;1.00;;;10.30;99.90;;;8.88;80.70;100864.75;3537389;39;104713;-40
2021/05/26 05:39:17;;;;;;;3.10;1.10;;;10.30;99.90;;;8.91;79.68;100864.38;3528919;39;103152;-40
2021/05/26 05:41:45;;;;;;;2.92;1.23;;;10.30;99.90;;;8.98;80.06;100858.13;3520869;39;103434;-40
2021/05/26 05:44:13;;;;;;;1.67;0.93;;;10.30;99.90;;;9.00;78.35;100856.88;3520521;39;105220;-40
2021/05/26 05:46:40;;;;;;;2.33;0.80;;;10.40;99.90;;;9.04;78.64;100860.88;3520559;39;102381;-40
2021/05/26 05:49:08;;;;;;;1.38;0.90;;;10.40;99.90;;;9.10;79.53;100858.41;3528848;39;105777;-40
2021/05/26 05:51:35;;;;;;;3.95;1.23;;;10.40;99.90;;;9.18;79.17;100858.22;3520603;39;104261;-40
2021/05/26 05:54:03;;;;;;;3.42;1.00;;;10.50;99.90;;;9.21;78.91;100855.09;3528448;39;103377;-40
2021/05/26 05:56:30;;;;;;;;;;;10.60;99.90;;;9.27;78.02;100856.16;3529369;39;103912;-40
2021/05/26 05:58:58;;;;;;;1.63;0.90;;;10.60;99.90;;;9.28;77.27;100852.41;3528855;39;103968;-40
2021/05/26 06:01:25;;;;;;;3.08;0.95;;;10.60;99.90;;;9.34;78.84;100857.03;3529055;39;102564;-40
2021/05/26 06:03:53;;;;;;;2.22;0.88;;;10.70;99.90;;;9.37;79.23;100845.72;3537071;39;103073;-41
2021/05/26 06:06:20;;;;;;;3.58;1.08;;;10.70;99.90;;;9.50;79.33;100853.09;3536981;39;102800;-40
2021/05/26 06:08:48;;;;;;;;;;;10.80;99.90;;;9.47;77.19;100840.75;3530460;39;102265;-40
2021/05/26 06:11:16;;;;;;;1.33;0.77;;;10.80;99.90;;;9.53;76.68;100849.97;3528883;39;102241;-41
2021/05/26 06:13:47;;;;;;;2.53;0.82;;;10.90;99.90;;;9.52;76.99;100844.72;3529754;39;103531;-40
2021/05/26 06:16:16;;;;;;;2.65;0.73;;;10.90;99.90;;;9.54;76.51;100854.34;3536972;39;102431;-40
2021/05/26 06:18:44;;;;;;;2.05;0.73;;;10.90;99.90;;;9.51;76.25;100843.88;3536478;39;103962;-39
2021/05/26 06:21:11;;;;;;;2.65;1.10;;;10.90;99.90;;;9.55;75.92;100850.63;3528707;39;104768;-40
2021/05/26 06:23:42;;;;;;;2.22;0.90;;;10.90;99.90;;;9.55;76.25;100856.06;3536690;39;104215;-40
2021/05/26 06:26:10;;;;;;;1.67;0.88;;;10.90;99.90;;;9.59;77.39;100851.03;3537052;39;102272;-41
2021/05/26 06:28:37;;;;;;;2.80;1.00;;;10.90;99.90;;;9.62;76.36;100856.06;3528615;39;104461;-40
2021/05/26 06:31:05;;;;;;;3.25;1.00;;;10.90;99.90;;;9.65;77.12;100861.09;3528953;39;102382;-40
2021/05/26 06:33:33;;;;;;;3.13;1.20;;;11.00;99.90;;;9.64;76.06;100857.56;3528477;39;103059;-39
2021/05/26 06:36:00;;;;;;;2.35;0.73;;;11.00;99.90;;;9.75;76.86;100858.84;3537118;39;102533;-40
2021/05/26 06:38:28;;;;;;;3.90;0.98;;;11.10;99.90;;;9.84;76.99;100854.03;3536492;39;103126;-40
2021/05/26 06:40:55;;;;;;;4.07;1.17;;;11.10;99.90;;;9.89;75.32;100854.25;3520488;39;104148;-40
2021/05/26 06:43:23;;;;;;;3.20;1.10;;;11.20;99.90;;;10.00;76.17;100857.41;3536560;39;103106;-40
2021/05/26 06:45:50;;;;;;;1.60;0.77;;;11.30;99.90;;;10.05;75.70;100854.88;3528322;39;104675;-40
2021/05/26 06:48:18;;;;;;;;;;;11.30;99.90;;;10.16;75.13;100854.28;3530582;39;104420;-40
2021/05/26 06:50:46;;;;;;;2.25;1.05;;;11.40;99.90;;;10.24;75.79;100847.78;3529769;39;103117;-41
2021/05/26 06:53:13;;;;;;;3.30;0.90;;;11.50;99.90;;;10.30;73.24;100848.81;3536733;39;104078;-41
2021/05/26 06:55:41;;;;;;;2.05;0.80;;;11.50;99.90;;;10.33;72.92;100837.47;3528474;39;104579;-40
2021/05/26 06:58:08;;;;;;;2.20;0.85;;;11.60;99.90;;;10.51;73.68;100845.06;3536844;39;105745;-41
2021/05/26 07:00:36;;;;;;;3.38;1.17;;;11.70;99.90;;;10.71;75.10;100839.56;3528575;39;103310;-40
2021/05/26 07:03:05;;;;;;;2.95;0.98;;;11.80;99.90;;;10.94;74.49;100830.06;3520368;39;104732;-41
2021/05/26 07:05:33;;;;;;;1.30;0.75;;;12.00;99.90;;;11.21;73.01;100839.00;3528550;39;102499;-40
2021/05/26 07:08:00;;;;;;;;;;;12.20;99.90;;;11.57;72.75;100838.63;3530192;39;104260;-40
2021/05/26 07:10:28;;;;;;;1.90;0.90;;;12.50;99.90;;;11.84;72.56;100830.28;3520534;39;102196;-41
2021/05/26 07:12:56;;;;;;;1.77;0.90;;;12.80;99.90;;;11.99;68.25;100835.41;3536633;39;106282;-40
2021/05/26 07:15:25;;;;;;;2.20;1.30;;;13.00;99.90;;;12.07;68.88;100836.03;3536696;39;102499;-41
2021/05/26 07:17:54;;;;;;;3.10;1.02;;;13.10;99.90;;;12.23;68.24;100822.84;3529035;39;103447;-40
2021/05/26 07:20:23;;;;;;;2.28;1.20;;;13.30;99.90;;;12.48;67.71;100838.41;3536078;39;102439;-41
2021/05/26 07:22:51;;;;;;;1.65;1.05;;;13.50;99.90;;;12.27;65.36;100836.91;3536367;39;103294;-41
2021/05/26 07:25:19;;;;;;;2.92;1.00;;;13.50;99.90;;;12.14;65.50;100816.81;3529093;39;102330;-41
2021/05/26 07:27:46;;;;;;;4.00;1.10;;;13.50;99.90;;;12.18;66.49;100831.69;3537057;39;103072;-40
2021/05/26 07:30:16;;;;;;;1.65;1.17;;;13.40;99.90;;;12.34;67.65;100834.94;3520385;39;104054;-41
2021/05/26 07:32:44;;;;;;;1.40;0.88;;;13.50;99.90;;;12.49;64.68;100823.66;3529479;39;104104;-41
2021/05/26 07:35:13;;;;;;;0.70;0.63;;;13.60;99.90;;;12.58;66.09;100819.56;3536467;39;102808;-41
2021/05/26 07:37:41;;;;;;;2.25;0.73;;;13.70;99.90;;;12.67;66.68;100817.38;3529299;39;103238;-41
2021/05/26 07:40:11;;;;;;;1.50;0.82;;;13.80;99.90;;;12.84;66.56;100823.06;3528301;39;103832;-41
2021/05/26 07:42:39;;;;;;;1.40;0.70;;;13.90;99.90;;;12.89;65.11;100819.66;3529473;39;103410;-39
2021/05/26 07:45:09;;;;;;;2.08;1.00;;;14.00;99.90;;;12.71;63.20;100818.56;3528067;39;103224;-40
2021/05/26 07:47:37;;;;;;;2.45;1.10;;;13.90;99.90;;;12.70;65.13;100819.66;3529439;39;103375;-43
2021/05/26 07:50:06;;;;;;;2.05;0.85;;;13.90;99.90;;;12.68;64.80;100805.34;3519693;39;102446;-40
2021/05/26 07:52:34;;;;;;;1.08;0.88;;;13.90;99.90;;;12.84;64.07;100809.38;3536785;39;103321;-40
2021/05/26 07:55:04;;;;;;;1.55;0.77;;;14.00;99.90;;;12.78;65.50;100813.03;3528243;39;102408;-41
2021/05/26 07:57:31;;;;;;;1.08;0.63;;;14.00;99.90;;;12.80;64.66;100814.50;3529042;39;104656;-41
2021/05/26 07:59:58;;;;;;;1.80;0.88;;;14.00;99.90;;;12.72;64.45;100814.78;3528207;39;104722;-41
2021/05/26 08:02:26;;;;;;;2.45;1.00;;;13.90;99.90;;;12.83;63.31;100809.63;3527896;39;103464;-41
2021/05/26 08:04:54;;;;;;;1.27;0.75;;;14.00;99.90;;;12.89;62.04;100809.56;3527856;39;103321;-41
2021/05/26 08:07:21;;;;;;;1.85;0.90;;;14.10;99.90;;;12.76;63.24;100810.53;3536582;39;104283;-41
2021/05/26 08:09:49;;;;;;;2.70;0.88;;;14.00;99.90;;;12.68;64.19;100804.53;3663376;22;103165;-40
2021/05/26 08:12:17;;;;;;;1.90;0.73;;;14.00;99.90;;;12.37;65.14;100812.59;3523143;39;102351;-40
2021/05/26 08:14:44;;;;;;;0.63;0.50;;;13.80;99.90;;;12.65;64.51;100814.00;3527934;39;102666;-40
2021/05/26 08:17:12;;;;;;;0.77;0.60;;;13.80;99.90;;;12.73;63.41;100815.63;3528646;39;104116;-42
2021/05/26 08:19:39;;;;;;;1.98;0.73;;;13.90;99.90;;;12.58;62.53;100808.59;3526727;39;103242;-40
2021/05/26 08:22:07;;;;;;;2.15;0.82;;;13.90;99.90;;;12.62;63.04;100801.66;3528287;39;102338;-40
2021/05/26 08:24:34;;;;;;;1.13;0.68;;;13.80;99.90;;;12.70;64.56;100800.47;3528005;39;103367;-41
2021/05/26 08:27:02;;;;;;;1.58;0.70;;;13.90;99.90;;;12.85;61.42;100802.03;3519314;39;105087;-40
2021/05/26 08:29:32;;;;;;;1.02;0.70;;;14.00;99.90;;;13.32;63.57;100794.06;3519196;39;103399;-40
2021/05/26 08:32:02;;;;;;;2.35;0.70;;;14.30;99.90;;;13.74;60.62;100803.41;3528093;39;102194;-40
2021/05/26 08:34:30;;;;;;;2.45;0.60;;;14.70;99.90;;;14.18;59.09;100801.22;3526978;39;102338;-40
2021/05/26 08:36:57;;;;;;;2.10;0.55;;;15.00;99.90;;;14.09;57.09;100792.50;3528211;39;102273;-40
2021/05/26 08:39:25;;;;;;;2.13;0.80;;;15.10;99.90;;;13.93;57.91;100785.81;3519119;39;104987;-40
2021/05/26 08:41:54;;;;;;;1.60;0.70;;;15.00;99.90;;;13.74;59.09;100793.28;3527476;39;104140;-40
2021/05/26 08:44:21;;;;;;;2.80;0.80;;;14.90;99.90;;;13.51;60.13;100775.69;3535487;39;102272;-40
2021/05/26 08:47:01;;;;;;;1.27;0.65;;;14.70;99.90;;;13.41;60.16;100788.25;3527459;39;104080;-39
2021/05/26 08:49:32;;;;;;;1.75;0.70;;;14.60;99.90;;;13.32;59.39;100779.50;3535141;39;102466;-41
2021/05/26 08:52:02;;;;;;;1.10;0.65;;;14.50;99.90;;;13.23;59.22;100785.31;3528134;39;102225;-40
2021/05/26 08:54:30;;;;;;;2.00;0.77;;;14.40;99.90;;;13.42;60.08;100773.47;3528119;39;102411;-41
2021/05/26 08:56:57;;;;;;;1.13;0.68;;;14.40;99.90;;;13.78;58.89;100775.28;3527960;39;102421;-42
2021/05/26 08:59:25;;;;;;;2.08;0.90;;;14.70;99.90;;;14.00;59.25;100768.41;3527100;39;102450;-40
2021/05/26 09:01:53;;;;;;;1.38;0.80;;;14.90;99.90;;;14.15;56.89;100763.28;3528607;39;102863;-40
2021/05/26 09:04:33;;;;;;;1.27;0.75;;;15.10;99.90;;;14.04;56.83;100764.94;3528010;39;102406;-40
2021/05/26 09:07:14;;;;;;;1.92;1.00;;;15.10;99.90;;;14.05;59.88;100765.78;3529613;39;102543;-40
2021/05/26 09:10:03;;;;;;;1.30;0.90;;;15.10;99.90;;;14.57;59.36;100758.72;3534259;39;102492;-41
2021/05/26 09:12:34;;;;;;;3.25;0.88;;;15.40;99.90;;;15.06;61.06;100758.41;3538419;39;102715;-40
2021/05/26 09:15:07;;;;;;;0.98;0.80;;;15.80;99.90;;;15.16;56.02;100763.28;3529840;39;104246;-41
2021/05/26 09:17:36;;;;;;;0.80;0.68;;;16.00;99.90;;;14.84;54.09;100755.47;3539673;39;103185;-41
2021/05/26 09:20:22;;;;;;;1.02;0.73;;;15.90;99.90;;;14.68;55.25;100757.88;3538297;39;102453;-40
2021/05/26 09:23:12;;;;;;;0.57;0.50;;;15.80;99.90;;;14.52;55.28;100754.78;3539473;39;102241;-40
2021/05/26 09:25:52;;;;;;;1.58;0.80;;;15.60;99.90;;;14.58;57.26;100753.00;3531326;39;102406;-40
2021/05/26 09:28:23;;;;;;;0.93;0.60;;;15.70;99.90;;;14.70;55.88;100750.22;3538463;39;102415;-40
2021/05/26 09:31:06;;;;;;;2.75;0.47;;;15.70;99.90;;;14.59;54.98;100737.38;3538988;39;102531;-42
2021/05/26 09:33:44;;;;;;;1.02;0.60;;;15.70;99.90;;;14.59;54.61;100751.91;3515119;39;105627;-40
2021/05/26 09:36:24;;;;;;;0.98;0.40;;;15.70;99.90;;;14.51;57.78;100747.63;3539068;39;104145;-40
2021/05/26 09:38:57;;;;;;;1.67;0.88;;;15.60;99.90;;;14.51;56.82;100742.13;3538829;39;103191;-40
2021/05/26 09:41:36;;;;;;;1.90;0.85;;;15.60;99.90;;;14.56;55.51;100743.31;3539166;39;102331;-40
2021/05/26 09:46:44;;;;;;;1.52;0.70;;;15.60;99.90;;;14.62;56.10;100742.38;3538998;39;104134;-41
2021/05/26 09:49:26;;;;;;;2.08;0.80;;;15.70;99.90;;;14.83;56.69;100740.91;3529922;39;105637;-42
2021/05/26 09:51:55;;;;;;;0.90;0.70;;;15.80;99.90;;;14.92;57.75;100738.63;3539290;39;102388;-41
2021/05/26 09:54:28;;;;;;;4.13;0.90;;;15.90;99.90;;;14.91;56.63;100734.22;3539076;39;104907;-40
2021/05/26 09:57:06;;;;;;;1.10;0.68;;;15.90;99.90;;;15.01;57.57;100734.41;3530807;39;103254;-41
2021/05/26 09:59:36;;;;;;;0.90;0.65;;;16.00;99.90;;;14.96;54.63;100737.06;3539077;39;102362;-40
2021/05/26 10:02:07;;;;;;;1.40;0.70;;;16.00;99.90;;;14.85;54.64;100735.16;3530174;39;102451;-40
2021/05/26 10:04:41;;;;;;;0.60;0.55;;;16.00;99.90;;;14.81;57.54;100735.66;3530255;39;104170;-40
2021/05/26 10:07:20;;;;;;;0.98;0.60;;;15.90;99.90;;;14.67;57.26;100735.06;3524572;39;102285;-42
2021/05/26 10:09:50;;;;;;;2.33;0.70;;;15.80;99.90;;;14.60;57.05;100736.31;3539122;39;103254;-40
2021/05/26 10:12:33;;;;;;;1.17;0.80;;;15.80;99.90;;;14.73;56.51;100733.31;3538735;39;102992;-39
2021/05/26 10:15:03;;;;;;;1.30;0.68;;;15.80;99.90;;;14.99;59.10;100736.56;3538901;39;102457;-41
2021/05/26 10:17:36;;;;;;;1.80;0.80;;;15.90;99.90;;;14.88;55.00;100732.78;3539299;39;103357;-41
2021/05/26 10:20:10;;;;;;;1.55;0.80;;;16.00;99.90;;;15.06;54.83;100737.25;3529974;39;104055;-40
2021/05/26 10:22:40;;;;;;;2.00;0.70;;;16.10;99.90;;;15.21;54.97;100733.97;3530057;39;102239;-40
2021/05/26 10:25:14;;;;;;;4.15;0.85;;;16.20;99.90;;;15.39;56.48;100730.19;3539253;39;103233;-41
2021/05/26 10:27:54;;;;;;;1.45;0.80;;;16.30;99.90;;;15.39;54.94;100741.19;3539979;39;103400;-41
2021/05/26 10:30:26;;;;;;;1.20;0.60;;;16.40;99.90;;;15.46;56.04;100742.94;3538843;39;102447;-40
2021/05/26 10:33:06;;;;;;;1.95;0.60;;;16.40;99.90;;;15.38;54.49;100735.94;3539463;39;102223;-40
2021/05/26 10:35:55;;;;;;;1.15;0.77;;;16.40;99.90;;;15.46;52.42;100745.69;3529895;39;102330;-42